Time;durP1;ratioP1;P1;durP2;ratioP2;P2;SDS_P1;SDS_P2;PMS_P1;PMS_P2;Temp;Humidity;BMP_temperature;BMP_pressure;BME280_temperature;BME280_humidity;BME280_pressure;Samples;Min_cycle;Max_cycle;Signal;HPM_P1;HPM_P2
2021/03/24 00:02:15;;;;;;;10.70;7.77;;;5.20;99.90;;;;;;4960251;28;20223;-75
2021/03/24 00:04:41;;;;;;;11.00;8.40;;;5.20;99.90;;;;;;4962661;28;20453;-77
2021/03/24 00:07:07;;;;;;;10.17;7.90;;;5.20;99.90;;;;;;4960380;28;20594;-76
2021/03/24 00:09:32;;;;;;;15.10;8.20;;;5.10;99.90;;;;;;4961778;28;20197;-77
2021/03/24 00:11:58;;;;;;;13.67;7.50;;;5.10;99.90;;;;;;4960867;28;20242;-76
2021/03/24 00:14:24;;;;;;;11.23;8.33;;;5.10;99.90;;;;;;4963740;28;20221;-77
2021/03/24 00:16:49;;;;;;;12.70;7.50;;;5.10;99.90;;;;;;4960569;28;20190;-76
2021/03/24 00:19:15;;;;;;;11.87;7.80;;;5.10;99.90;;;;;;4962017;28;20198;-76
2021/03/24 00:21:41;;;;;;;13.73;9.03;;;5.10;99.90;;;;;;4963991;28;20218;-76
2021/03/24 00:24:06;;;;;;;9.37;7.63;;;5.10;99.90;;;;;;4960051;28;20619;-76
2021/03/24 00:26:32;;;;;;;11.33;7.70;;;5.10;99.90;;;;;;4964408;28;20301;-76
2021/03/24 00:28:58;;;;;;;11.87;7.60;;;5.10;99.90;;;;;;4960180;28;20199;-76
2021/03/24 00:31:23;;;;;;;12.63;7.97;;;5.00;99.90;;;;;;4961936;28;20523;-76
2021/03/24 00:33:50;;;;;;;13.60;8.37;;;5.00;99.90;;;;;;4960635;28;21033;-77
2021/03/24 00:36:16;;;;;;;12.13;7.90;;;5.10;99.90;;;;;;4965920;28;20187;-75
2021/03/24 00:38:42;;;;;;;15.60;9.60;;;5.00;99.90;;;;;;4958489;28;21039;-75
2021/03/24 00:41:08;;;;;;;17.53;8.43;;;5.00;99.90;;;;;;4956172;28;20553;-77
2021/03/24 00:43:33;;;;;;;10.70;8.33;;;5.10;99.90;;;;;;4962226;28;20217;-77
2021/03/24 00:45:59;;;;;;;12.33;8.30;;;5.00;99.90;;;;;;4959486;28;20637;-76
2021/03/24 00:48:30;;;;;;;13.87;8.60;;;5.00;99.90;;;;;;4963379;28;20430;-76
2021/03/24 00:50:57;;;;;;;10.27;7.83;;;5.00;99.90;;;;;;4957862;28;20202;-76
2021/03/24 00:53:23;;;;;;;13.07;8.70;;;5.00;99.90;;;;;;4962719;28;21186;-76
2021/03/24 00:55:49;;;;;;;12.57;7.93;;;5.00;99.90;;;;;;4960299;28;20450;-76
2021/03/24 00:58:17;;;;;;;11.70;8.83;;;5.00;99.90;;;;;;4962309;28;20449;-75
2021/03/24 01:00:43;;;;;;;10.63;8.03;;;4.90;99.90;;;;;;4960889;28;21194;-76
2021/03/24 01:03:10;;;;;;;10.40;8.23;;;4.90;99.90;;;;;;4963742;28;20456;-77
2021/03/24 01:05:36;;;;;;;10.83;7.67;;;4.90;99.90;;;;;;4964261;28;20450;-77
2021/03/24 01:08:04;;;;;;;16.90;8.47;;;4.90;99.90;;;;;;4961297;28;20473;-76
2021/03/24 01:10:33;;;;;;;9.43;7.13;;;4.90;99.90;;;;;;4958263;28;20436;-77
2021/03/24 01:12:58;;;;;;;10.73;8.37;;;4.90;99.90;;;;;;4958426;28;20558;-75
2021/03/24 01:15:26;;;;;;;8.70;6.83;;;4.90;99.90;;;;;;4960351;28;21395;-75
2021/03/24 01:17:53;;;;;;;10.93;7.20;;;4.90;99.90;;;;;;4961023;28;20279;-77
2021/03/24 01:20:21;;;;;;;10.93;7.60;;;4.80;99.90;;;;;;4961918;28;20449;-75
2021/03/24 01:22:46;;;;;;;12.03;8.03;;;4.80;99.90;;;;;;4965547;28;21007;-72
2021/03/24 01:25:12;;;;;;;8.30;6.70;;;4.80;99.90;;;;;;4974009;28;20513;-75
2021/03/24 01:27:38;;;;;;;9.33;7.23;;;4.90;99.90;;;;;;4971818;28;20202;-76
2021/03/24 01:30:05;;;;;;;7.77;6.67;;;4.80;99.90;;;;;;4976806;28;20206;-79
2021/03/24 01:32:31;;;;;;;9.40;7.27;;;4.80;99.90;;;;;;4978989;28;20212;-77
2021/03/24 01:34:56;;;;;;;9.83;7.90;;;4.80;99.90;;;;;;4967017;28;20441;-77
2021/03/24 01:37:22;;;;;;;12.57;8.10;;;4.70;99.90;;;;;;4966384;28;20207;-77
2021/03/24 01:39:48;;;;;;;10.97;7.50;;;4.60;99.90;;;;;;4962158;28;20218;-76
2021/03/24 01:42:13;;;;;;;12.20;7.90;;;4.60;99.90;;;;;;4960990;28;20222;-77
2021/03/24 01:45:04;;;;;;;12.40;8.10;;;4.60;99.90;;;;;;4961767;28;20203;-75
2021/03/24 01:47:32;;;;;;;11.63;8.17;;;4.60;99.90;;;;;;4961300;28;20226;-75
2021/03/24 01:49:58;;;;;;;11.80;7.67;;;4.50;99.90;;;;;;4965146;28;20434;-75
2021/03/24 01:52:25;;;;;;;9.40;8.00;;;4.50;99.90;;;;;;4962864;28;21056;-76
2021/03/24 01:54:51;;;;;;;9.33;7.00;;;4.50;99.90;;;;;;4964161;28;20762;-78
2021/03/24 01:57:22;;;;;;;8.50;7.70;;;4.50;99.90;;;;;;4965781;28;20779;-77
2021/03/24 01:59:50;;;;;;;14.10;8.33;;;4.40;99.90;;;;;;4959875;28;20450;-76
2021/03/24 02:02:30;;;;;;;10.37;7.30;;;4.40;99.90;;;;;;4959746;28;20937;-76
2021/03/24 02:04:56;;;;;;;10.90;8.63;;;4.40;99.90;;;;;;4941612;28;20540;-76
2021/03/24 02:07:30;;;;;;;9.80;7.20;;;4.40;99.90;;;;;;4957052;28;20907;-76
2021/03/24 02:10:09;;;;;;;9.40;6.90;;;4.40;99.90;;;;;;4956542;28;20222;-77
2021/03/24 02:13:04;;;;;;;11.30;7.10;;;4.40;99.90;;;;;;4959571;28;20561;-77
2021/03/24 02:15:32;;;;;;;12.87;7.97;;;4.40;99.90;;;;;;4957163;28;20489;-75
2021/03/24 02:18:00;;;;;;;11.33;7.70;;;4.40;99.90;;;;;;4960012;28;20515;-76
2021/03/24 02:20:35;;;;;;;13.07;8.70;;;4.40;99.90;;;;;;4957429;28;20446;-77
2021/03/24 02:23:23;;;;;;;11.97;8.20;;;4.30;99.90;;;;;;4957836;28;20964;-75
2021/03/24 02:25:55;;;;;;;10.90;8.17;;;4.20;99.90;;;;;;4957615;28;20521;-77
2021/03/24 02:28:22;;;;;;;9.80;8.00;;;4.10;99.90;;;;;;4956989;28;20426;-77
2021/03/24 02:30:49;;;;;;;10.73;9.60;;;4.10;99.90;;;;;;4959234;28;20821;-77
2021/03/24 02:33:29;;;;;;;12.53;8.60;;;4.10;99.90;;;;;;4958187;28;20501;-76
2021/03/24 02:36:01;;;;;;;12.07;8.07;;;4.00;99.90;;;;;;4960574;28;20452;-77
2021/03/24 02:38:28;;;;;;;14.40;10.13;;;4.00;99.90;;;;;;4956288;28;20479;-77
2021/03/24 02:40:55;;;;;;;10.07;8.10;;;4.00;99.90;;;;;;4958407;28;20472;-77
2021/03/24 02:43:22;;;;;;;11.50;9.43;;;4.00;99.90;;;;;;4960155;28;20432;-78
2021/03/24 02:45:50;;;;;;;11.00;7.90;;;3.90;99.90;;;;;;4960815;28;20430;-76
2021/03/24 02:48:21;;;;;;;11.37;9.17;;;3.90;99.90;;;;;;4960452;28;20477;-75
2021/03/24 02:50:47;;;;;;;16.57;9.60;;;3.90;99.90;;;;;;4960758;28;20426;-77
2021/03/24 02:53:14;;;;;;;12.83;8.70;;;3.90;99.90;;;;;;4957648;28;20442;-75
2021/03/24 02:55:42;;;;;;;11.27;8.53;;;3.90;99.90;;;;;;4957694;28;21055;-78
2021/03/24 02:58:10;;;;;;;14.20;9.00;;;3.90;99.90;;;;;;4959520;28;20442;-76
2021/03/24 03:00:36;;;;;;;18.57;9.00;;;3.90;99.90;;;;;;4959437;28;21163;-76
2021/03/24 03:03:09;;;;;;;12.80;10.13;;;3.80;99.90;;;;;;4962282;28;20492;-75
2021/03/24 03:05:36;;;;;;;11.33;9.23;;;3.80;99.90;;;;;;4958756;28;20452;-77
2021/03/24 03:08:37;;;;;;;14.60;10.37;;;3.80;99.90;;;;;;4962640;28;20476;-77
2021/03/24 03:11:12;;;;;;;12.50;9.03;;;3.80;99.90;;;;;;4957901;28;20519;-76
2021/03/24 03:13:46;;;;;;;12.67;8.97;;;3.80;99.90;;;;;;4960651;28;20517;-77
2021/03/24 03:16:17;;;;;;;14.10;8.40;;;3.70;99.90;;;;;;4958180;28;20445;-77
2021/03/24 03:18:57;;;;;;;12.47;8.90;;;3.70;99.90;;;;;;4963833;28;20426;-77
2021/03/24 03:21:29;;;;;;;18.30;9.30;;;3.70;99.90;;;;;;4964912;28;20559;-77
2021/03/24 03:23:57;;;;;;;16.57;11.07;;;3.70;99.90;;;;;;4961326;28;20442;-78
2021/03/24 03:26:24;;;;;;;11.20;8.30;;;3.70;99.90;;;;;;4963677;28;20468;-76
2021/03/24 03:28:57;;;;;;;12.83;8.40;;;3.70;99.90;;;;;;4960006;28;20456;-77
2021/03/24 03:31:31;;;;;;;15.30;8.90;;;3.70;99.90;;;;;;4977805;28;20454;-77
2021/03/24 03:33:58;;;;;;;12.97;9.47;;;3.70;99.90;;;;;;4963614;28;20566;-77
2021/03/24 03:36:25;;;;;;;17.70;8.63;;;3.70;99.90;;;;;;4962541;28;21368;-76
2021/03/24 03:38:55;;;;;;;16.27;8.87;;;3.70;99.90;;;;;;4961806;28;20448;-76
2021/03/24 03:41:21;;;;;;;15.00;8.60;;;3.70;99.90;;;;;;4962810;28;20469;-76
2021/03/24 03:43:51;;;;;;;13.47;8.83;;;3.70;99.90;;;;;;4963076;28;20932;-76
2021/03/24 03:46:20;;;;;;;14.03;9.40;;;3.60;99.90;;;;;;4969403;28;20465;-76
2021/03/24 03:48:47;;;;;;;13.13;9.07;;;3.50;99.90;;;;;;4968279;28;20499;-74
2021/03/24 03:51:23;;;;;;;12.40;8.27;;;3.50;99.90;;;;;;4965051;28;20481;-76
2021/03/24 03:53:59;;;;;;;13.50;9.23;;;3.50;99.90;;;;;;4970128;28;20756;-76
2021/03/24 03:57:09;;;;;;;14.87;9.20;;;3.50;99.90;;;;;;4979670;28;20504;-76
2021/03/24 03:59:56;;;;;;;11.63;9.27;;;3.40;99.90;;;;;;4961792;28;20550;-76
2021/03/24 04:02:31;;;;;;;13.13;8.60;;;3.40;99.90;;;;;;4977691;28;20461;-76
2021/03/24 04:05:04;;;;;;;15.30;10.23;;;3.50;99.90;;;;;;4971174;28;20449;-76
2021/03/24 04:07:39;;;;;;;16.20;9.30;;;3.40;99.90;;;;;;4968136;28;20450;-76
2021/03/24 04:10:06;;;;;;;14.93;9.30;;;3.40;99.90;;;;;;4966581;28;20504;-75
2021/03/24 04:12:36;;;;;;;14.30;9.47;;;3.40;99.90;;;;;;4966896;28;20446;-77
2021/03/24 04:15:07;;;;;;;12.60;9.13;;;3.30;99.90;;;;;;4967643;28;20942;-78
2021/03/24 04:17:38;;;;;;;13.37;8.97;;;3.30;99.90;;;;;;4965905;28;20461;-75
2021/03/24 04:20:06;;;;;;;12.90;9.37;;;3.30;99.90;;;;;;4966631;28;20446;-77
2021/03/24 04:22:32;;;;;;;15.43;9.60;;;3.20;99.90;;;;;;4962363;28;20499;-75
2021/03/24 04:25:01;;;;;;;13.43;9.13;;;3.20;99.90;;;;;;4967604;28;20441;-76
2021/03/24 04:27:32;;;;;;;13.07;9.43;;;3.20;99.90;;;;;;4961388;28;20486;-76
2021/03/24 04:30:13;;;;;;;16.07;9.47;;;3.20;99.90;;;;;;4966229;28;20533;-77
2021/03/24 04:32:39;;;;;;;12.03;9.33;;;3.20;99.90;;;;;;4967594;28;21445;-77
2021/03/24 04:35:07;;;;;;;14.80;10.00;;;3.20;99.90;;;;;;4964760;28;20534;-78
2021/03/24 04:37:45;;;;;;;13.00;9.80;;;3.20;99.90;;;;;;4965153;28;20258;-76
2021/03/24 04:40:29;;;;;;;13.00;8.30;;;3.10;99.90;;;;;;4963683;28;20441;-76
2021/03/24 04:43:02;;;;;;;14.60;9.87;;;3.10;99.90;;;;;;4966119;28;20851;-77
2021/03/24 04:46:09;;;;;;;13.43;9.20;;;3.10;99.90;;;;;;4965093;28;20429;-77
2021/03/24 04:48:49;;;;;;;14.13;9.60;;;3.10;99.90;;;;;;4941586;28;20463;-76
2021/03/24 04:51:22;;;;;;;14.60;10.43;;;3.10;99.90;;;;;;4926110;29;20476;-76
2021/03/24 04:54:01;;;;;;;13.10;9.50;;;3.10;99.90;;;;;;4955705;28;20442;-77
2021/03/24 04:56:27;;;;;;;11.30;8.67;;;3.10;99.90;;;;;;4965061;28;20945;-77
2021/03/24 04:58:57;;;;;;;16.20;9.10;;;3.10;99.90;;;;;;4966218;28;20458;-77
2021/03/24 05:01:40;;;;;;;10.10;8.37;;;3.10;99.90;;;;;;4963428;28;20474;-76
2021/03/24 05:04:12;;;;;;;11.70;8.43;;;3.10;99.90;;;;;;4963675;28;21048;-76
2021/03/24 05:06:44;;;;;;;16.63;11.07;;;3.10;99.90;;;;;;4963393;28;21216;-77
2021/03/24 05:09:10;;;;;;;16.60;8.77;;;3.10;99.90;;;;;;4962992;28;20452;-76
2021/03/24 05:11:43;;;;;;;9.73;7.50;;;3.10;99.90;;;;;;4962988;28;20457;-76
2021/03/24 05:14:21;;;;;;;12.90;8.07;;;3.00;99.90;;;;;;4960067;28;20578;-76
2021/03/24 05:16:49;;;;;;;12.43;8.70;;;3.00;99.90;;;;;;4964480;28;21001;-75
2021/03/24 05:19:23;;;;;;;13.67;8.30;;;2.90;99.90;;;;;;4960949;28;20792;-76
2021/03/24 05:22:01;;;;;;;8.70;7.50;;;2.90;99.90;;;;;;4964131;28;20505;-76
2021/03/24 05:24:30;;;;;;;10.23;8.40;;;2.90;99.90;;;;;;4966302;28;20423;-77
2021/03/24 05:27:14;;;;;;;12.50;9.20;;;2.90;99.90;;;;;;4963926;28;20466;-76
2021/03/24 05:29:45;;;;;;;10.83;8.10;;;2.90;99.90;;;;;;4965366;28;20494;-77
2021/03/24 05:32:18;;;;;;;12.50;8.50;;;2.90;99.90;;;;;;4963550;28;20497;-77
2021/03/24 05:34:47;;;;;;;11.03;7.83;;;2.90;99.90;;;;;;4965867;28;21760;-76
2021/03/24 05:37:14;;;;;;;11.43;9.00;;;2.90;99.90;;;;;;4965635;28;20422;-76
2021/03/24 05:39:41;;;;;;;12.23;7.90;;;2.90;99.90;;;;;;4964463;28;20452;-77
2021/03/24 05:42:31;;;;;;;15.30;8.73;;;3.00;99.90;;;;;;4968947;28;20446;-77
2021/03/24 05:45:11;;;;;;;9.43;7.33;;;2.90;99.90;;;;;;4961141;28;20572;-76
2021/03/24 05:47:36;;;;;;;12.53;8.33;;;2.90;99.90;;;;;;4964121;28;20603;-77
2021/03/24 05:50:27;;;;;;;13.13;8.03;;;2.90;99.90;;;;;;4965175;28;20436;-76
2021/03/24 05:53:11;;;;;;;11.23;7.70;;;2.90;99.90;;;;;;4964736;28;20210;-76
2021/03/24 05:55:49;;;;;;;15.37;8.53;;;3.00;99.90;;;;;;4966617;28;20425;-76
2021/03/24 05:58:15;;;;;;;11.20;8.27;;;3.00;99.90;;;;;;4960473;28;20449;-76
2021/03/24 06:01:01;;;;;;;13.50;8.63;;;3.00;99.90;;;;;;4964004;28;21054;-76
2021/03/24 06:03:47;;;;;;;16.70;9.03;;;2.90;99.90;;;;;;4968407;28;20553;-77
2021/03/24 06:06:21;;;;;;;10.90;7.93;;;2.90;99.90;;;;;;4964410;28;20434;-76
2021/03/24 06:09:06;;;;;;;14.43;9.20;;;2.90;99.90;;;;;;4960603;28;20441;-78
2021/03/24 06:11:49;;;;;;;13.73;8.30;;;2.90;99.90;;;;;;4967416;28;20454;-77
2021/03/24 06:14:45;;;;;;;12.27;8.70;;;2.90;99.90;;;;;;4961634;28;20797;-78
2021/03/24 06:17:42;;;;;;;13.33;8.80;;;3.00;99.90;;;;;;4962270;28;20453;-76
2021/03/24 06:20:33;;;;;;;15.70;7.70;;;3.00;99.90;;;;;;4964054;28;20476;-77
2021/03/24 06:23:25;;;;;;;13.33;8.70;;;3.00;99.90;;;;;;4962254;28;20840;-76
2021/03/24 06:26:01;;;;;;;11.60;8.17;;;3.10;99.90;;;;;;4969832;28;20442;-77
2021/03/24 06:28:53;;;;;;;9.80;8.17;;;3.10;99.90;;;;;;4977446;28;20507;-75
2021/03/24 06:31:59;;;;;;;11.30;7.70;;;3.20;99.90;;;;;;4966728;28;20461;-77
2021/03/24 06:34:56;;;;;;;13.00;8.10;;;3.30;99.90;;;;;;4971502;28;20469;-76
2021/03/24 06:37:49;;;;;;;11.27;7.63;;;3.50;99.90;;;;;;4961914;28;21304;-76
2021/03/24 06:40:28;;;;;;;14.73;8.43;;;3.50;99.90;;;;;;4960675;28;20440;-76
2021/03/24 06:43:13;;;;;;;10.60;7.13;;;3.70;99.90;;;;;;4968805;28;21175;-76
2021/03/24 06:45:59;;;;;;;9.47;7.40;;;3.70;99.90;;;;;;4966392;28;20461;-76
2021/03/24 06:48:48;;;;;;;11.30;7.93;;;3.70;99.90;;;;;;4966497;28;20447;-76
2021/03/24 06:51:44;;;;;;;10.70;7.70;;;3.70;99.90;;;;;;4968888;28;20448;-77
2021/03/24 06:54:15;;;;;;;13.47;8.70;;;3.80;99.90;;;;;;4964545;28;20461;-76
2021/03/24 06:57:28;;;;;;;11.40;8.40;;;3.90;99.90;;;;;;4967119;28;20448;-78
2021/03/24 07:00:09;;;;;;;11.27;7.73;;;3.80;99.90;;;;;;4965020;28;20464;-77
2021/03/24 07:03:02;;;;;;;11.23;9.07;;;4.00;99.90;;;;;;4966617;28;20489;-76
2021/03/24 07:06:05;;;;;;;11.27;7.90;;;4.10;99.90;;;;;;4961438;28;20432;-77
2021/03/24 07:08:50;;;;;;;12.93;9.17;;;4.10;99.90;;;;;;4967293;28;20537;-75
2021/03/24 07:11:34;;;;;;;12.30;8.30;;;4.10;99.90;;;;;;4966399;28;20518;-76
2021/03/24 07:14:05;;;;;;;12.90;8.73;;;4.20;99.90;;;;;;4968371;28;20932;-75
2021/03/24 07:17:08;;;;;;;13.90;8.80;;;4.40;99.90;;;;;;4971179;28;20430;-76
2021/03/24 07:20:08;;;;;;;14.87;8.90;;;4.60;99.90;;;;;;4964154;28;20448;-74
2021/03/24 07:22:44;;;;;;;18.07;9.50;;;4.80;99.90;;;;;;4948825;28;20544;-76
2021/03/24 07:25:26;;;;;;;12.90;8.43;;;4.70;99.90;;;;;;4969191;28;20538;-77
2021/03/24 07:28:08;;;;;;;13.50;9.40;;;4.70;99.90;;;;;;4967089;28;20527;-77
2021/03/24 07:31:11;;;;;;;14.60;9.07;;;4.80;99.90;;;;;;4963315;28;20799;-76
2021/03/24 07:34:11;;;;;;;13.20;8.80;;;4.80;99.90;;;;;;4972748;28;20540;-77
2021/03/24 07:37:07;;;;;;;16.03;10.17;;;5.00;99.90;;;;;;4966774;28;20450;-77
2021/03/24 07:40:07;;;;;;;17.17;9.30;;;5.20;99.90;;;;;;4967214;28;20430;-77
2021/03/24 07:43:13;;;;;;;13.67;10.10;;;5.50;99.90;;;;;;4972111;28;20892;-78
2021/03/24 07:45:39;;;;;;;15.33;8.70;;;5.60;99.90;;;;;;4967813;28;20541;-78
2021/03/24 07:48:26;;;;;;;16.17;9.60;;;5.70;99.90;;;;;;4966670;28;20565;-77
2021/03/24 07:51:23;;;;;;;13.93;10.20;;;5.80;99.90;;;;;;4968918;28;20254;-78
2021/03/24 07:54:13;;;;;;;15.50;10.20;;;5.80;99.90;;;;;;4967419;28;20430;-75
2021/03/24 07:57:05;;;;;;;16.73;9.47;;;5.80;99.90;;;;;;4967588;28;20556;-77
2021/03/24 08:00:03;;;;;;;18.53;9.87;;;5.90;99.90;;;;;;4966511;28;20448;-76
2021/03/24 08:02:52;;;;;;;13.80;9.47;;;6.00;99.90;;;;;;4964748;28;20469;-77
2021/03/24 08:05:32;;;;;;;15.00;11.00;;;6.20;99.90;;;;;;4964913;28;20522;-77
2021/03/24 08:08:18;;;;;;;12.80;9.10;;;6.30;99.90;;;;;;4966909;28;20919;-74
2021/03/24 08:11:05;;;;;;;19.67;11.90;;;6.50;99.90;;;;;;4965274;28;20428;-77
2021/03/24 08:13:43;;;;;;;17.87;10.57;;;6.60;99.90;;;;;;4965167;28;20431;-76
2021/03/24 08:16:33;;;;;;;14.00;10.87;;;6.50;99.90;;;;;;4967791;28;21084;-77
2021/03/24 08:19:26;;;;;;;13.80;10.53;;;6.50;99.90;;;;;;4966642;28;20456;-76
2021/03/24 08:22:03;;;;;;;18.90;10.80;;;6.60;99.90;;;;;;4968774;28;20541;-77
2021/03/24 08:24:43;;;;;;;12.17;9.77;;;6.60;99.90;;;;;;4968339;28;20433;-76
2021/03/24 08:27:33;;;;;;;13.43;10.90;;;6.80;99.90;;;;;;4963966;28;20898;-76
2021/03/24 08:30:20;;;;;;;14.30;11.00;;;7.00;99.90;;;;;;4966607;28;20414;-71
2021/03/24 08:32:52;;;;;;;18.00;11.70;;;7.10;99.90;;;;;;4962112;28;20533;-76
2021/03/24 08:35:43;;;;;;;16.87;10.77;;;7.20;99.90;;;;;;4966271;28;20461;-76
2021/03/24 08:38:40;;;;;;;15.93;11.47;;;7.40;99.90;;;;;;4966502;28;21186;-75
2021/03/24 08:41:26;;;;;;;14.43;10.90;;;7.50;99.90;;;;;;4962354;28;20872;-76
2021/03/24 08:44:20;;;;;;;16.20;11.07;;;7.60;99.90;;;;;;4965661;28;20440;-68
2021/03/24 08:46:53;;;;;;;20.83;12.60;;;7.80;99.90;;;;;;4954134;28;21625;-68
2021/03/24 08:49:22;;;;;;;14.97;11.07;;;8.10;99.90;;;;;;4961293;28;20930;-67
2021/03/24 08:51:51;;;;;;;18.10;11.57;;;8.40;99.90;;;;;;4966621;28;20460;-78
2021/03/24 08:54:38;;;;;;;18.60;12.00;;;8.50;99.90;;;;;;4962175;28;20988;-76
2021/03/24 08:57:43;;;;;;;20.97;11.17;;;8.70;99.90;;;;;;4975619;28;20444;-75
2021/03/24 09:00:13;;;;;;;19.03;12.57;;;8.90;99.90;;;;;;4980771;28;20485;-77
2021/03/24 09:02:57;;;;;;;18.87;11.83;;;9.10;99.90;;;;;;4980146;28;20455;-74
2021/03/24 09:06:02;;;;;;;17.47;11.80;;;9.30;99.90;;;;;;4983000;28;20448;-75
2021/03/24 09:08:39;;;;;;;17.13;10.80;;;9.30;99.90;;;;;;4970141;28;20474;-75
2021/03/24 09:11:17;;;;;;;18.60;12.23;;;9.40;99.90;;;;;;4964030;28;20548;-76
2021/03/24 09:14:17;;;;;;;17.97;11.13;;;9.10;99.90;;;;;;4963193;28;20882;-76
2021/03/24 09:16:51;;;;;;;17.50;11.13;;;9.20;99.90;;;;;;4964590;28;20462;-77
2021/03/24 09:19:48;;;;;;;19.40;10.63;;;9.60;99.90;;;;;;4963982;28;20842;-78
2021/03/24 09:22:51;;;;;;;14.70;11.17;;;11.70;99.90;;;;;;4965648;28;20458;-74
2021/03/24 09:25:41;;;;;;;16.40;12.00;;;14.00;99.90;;;;;;4966915;28;20445;-75
2021/03/24 09:28:45;;;;;;;13.70;10.93;;;15.60;99.90;;;;;;4960846;28;20857;-77
2021/03/24 09:31:26;;;;;;;16.20;12.03;;;18.00;98.90;;;;;;4963941;28;20456;-77
2021/03/24 09:34:29;;;;;;;14.90;11.20;;;19.10;86.00;;;;;;4961353;28;20481;-73
2021/03/24 09:37:00;;;;;;;13.53;11.30;;;21.30;67.30;;;;;;4960893;28;20480;-73
2021/03/24 09:39:34;;;;;;;13.23;11.70;;;22.90;59.80;;;;;;4960034;28;20925;-74
2021/03/24 09:42:13;;;;;;;13.40;11.90;;;24.40;55.50;;;;;;4958640;28;20466;-73
2021/03/24 09:44:57;;;;;;;18.50;11.87;;;25.00;64.20;;;;;;4960804;28;22673;-75
2021/03/24 09:47:28;;;;;;;17.60;12.20;;;25.40;78.00;;;;;;4958461;28;20569;-75
2021/03/24 09:50:07;;;;;;;14.30;12.40;;;26.40;58.90;;;;;;4958823;28;21156;-75
2021/03/24 09:52:34;;;;;;;12.50;11.20;;;26.90;49.70;;;;;;4957387;28;20547;-75
2021/03/24 09:55:16;;;;;;;12.40;11.10;;;26.60;47.30;;;;;;4957462;28;20434;-75
2021/03/24 09:57:45;;;;;;;13.50;11.83;;;25.60;46.10;;;;;;4958832;28;20534;-75
2021/03/24 10:00:14;;;;;;;12.47;11.27;;;25.00;46.30;;;;;;4963171;28;20449;-75
2021/03/24 10:02:55;;;;;;;13.00;11.63;;;24.50;46.10;;;;;;4959543;28;20829;-76
2021/03/24 10:05:42;;;;;;;13.33;12.03;;;23.50;47.60;;;;;;4963404;28;20448;-73
2021/03/24 10:08:17;;;;;;;12.00;10.80;;;23.40;48.00;;;;;;4964121;28;20472;-74
2021/03/24 10:10:44;;;;;;;14.33;11.30;;;23.30;48.00;;;;;;4962446;28;20442;-77
2021/03/24 10:13:25;;;;;;;12.90;10.73;;;22.70;47.60;;;;;;4962130;28;20448;-76
2021/03/24 10:16:22;;;;;;;13.73;11.00;;;22.30;50.00;;;;;;4959528;28;20446;-76
2021/03/24 10:19:27;;;;;;;11.37;10.20;;;22.60;50.00;;;;;;4960854;28;20446;-77
2021/03/24 10:21:58;;;;;;;11.10;10.00;;;22.60;50.20;;;;;;4958696;28;20562;-77
2021/03/24 10:24:30;;;;;;;13.03;10.63;;;22.60;49.40;;;;;;4960794;28;21067;-75
2021/03/24 10:27:03;;;;;;;13.17;11.77;;;22.20;48.80;;;;;;4956973;28;20524;-73
2021/03/24 10:29:41;;;;;;;13.73;11.50;;;22.20;46.00;;;;;;4957307;28;20520;-75
2021/03/24 10:32:27;;;;;;;13.03;10.70;;;21.90;46.10;;;;;;4960144;28;20455;-75
2021/03/24 10:35:06;;;;;;;10.50;9.40;;;21.50;45.70;;;;;;4965124;28;20810;-75
2021/03/24 10:38:03;;;;;;;12.27;11.17;;;21.40;47.00;;;;;;4960581;28;20489;-76
2021/03/24 10:40:35;;;;;;;11.87;9.57;;;20.80;48.10;;;;;;4963373;28;20442;-77
2021/03/24 10:43:03;;;;;;;10.50;9.00;;;21.40;47.90;;;;;;4964590;28;20961;-76
2021/03/24 10:45:35;;;;;;;11.93;10.40;;;22.40;48.80;;;;;;4961916;28;20441;-75
2021/03/24 10:48:23;;;;;;;12.23;10.80;;;22.60;45.00;;;;;;4960361;28;20461;-75
2021/03/24 10:51:01;;;;;;;12.00;10.17;;;22.20;45.80;;;;;;4962206;28;20544;-76
2021/03/24 10:53:29;;;;;;;13.10;9.70;;;21.90;45.70;;;;;;4958588;28;20843;-76
2021/03/24 10:56:16;;;;;;;12.80;11.27;;;21.60;45.80;;;;;;4961163;28;20489;-77
2021/03/24 10:58:52;;;;;;;12.20;9.60;;;21.20;46.10;;;;;;4962046;28;20417;-75
2021/03/24 11:01:25;;;;;;;12.07;9.87;;;21.10;46.90;;;;;;4960178;28;20563;-73
2021/03/24 11:03:59;;;;;;;12.43;10.00;;;20.90;46.30;;;;;;4959002;28;20446;-74
2021/03/24 11:06:43;;;;;;;10.50;9.40;;;20.60;46.90;;;;;;4960207;28;20468;-75
2021/03/24 11:09:21;;;;;;;14.60;10.23;;;20.80;48.10;;;;;;4960645;28;20914;-74
2021/03/24 11:12:04;;;;;;;13.13;9.90;;;21.70;47.20;;;;;;4960385;28;20933;-76
2021/03/24 11:14:41;;;;;;;12.97;10.07;;;22.80;45.90;;;;;;4957750;28;20817;-75
2021/03/24 11:17:11;;;;;;;12.17;10.97;;;23.90;44.90;;;;;;4959867;28;20441;-77
2021/03/24 11:19:43;;;;;;;13.67;10.83;;;24.80;43.40;;;;;;4960762;28;20443;-74
2021/03/24 11:22:14;;;;;;;12.40;10.73;;;24.50;42.50;;;;;;4963051;28;20442;-73
2021/03/24 11:25:03;;;;;;;11.43;10.23;;;24.40;42.70;;;;;;4963126;28;20451;-75
2021/03/24 11:27:47;;;;;;;11.70;9.90;;;25.90;42.80;;;;;;4977823;28;20480;-74
2021/03/24 11:30:31;;;;;;;12.40;9.37;;;28.40;41.40;;;;;;4980912;28;20437;-74
2021/03/24 11:33:30;;;;;;;12.53;11.23;;;29.70;38.00;;;;;;4973861;28;20499;-73
2021/03/24 11:36:02;;;;;;;12.80;11.20;;;31.50;37.10;;;;;;4985290;28;20484;-77
2021/03/24 11:38:50;;;;;;;12.33;11.07;;;33.20;35.20;;;;;;4967607;28;20445;-75
2021/03/24 11:41:22;;;;;;;10.90;9.90;;;34.30;31.70;;;;;;4965009;28;20446;-75
2021/03/24 11:44:13;;;;;;;11.17;10.07;;;34.10;31.20;;;;;;4966640;28;20490;-75
2021/03/24 11:46:41;;;;;;;11.10;9.97;;;34.10;30.70;;;;;;4963191;28;20850;-76
2021/03/24 11:49:13;;;;;;;11.20;10.20;;;33.80;30.30;;;;;;4964206;28;20453;-74
2021/03/24 11:51:58;;;;;;;11.23;9.90;;;33.20;30.00;;;;;;4965572;28;20469;-71
2021/03/24 11:54:48;;;;;;;11.27;10.27;;;32.70;30.00;;;;;;4965644;28;20919;-79
2021/03/24 11:57:19;;;;;;;11.23;10.03;;;32.40;30.10;;;;;;4961729;28;20450;-74
2021/03/24 11:59:59;;;;;;;12.40;11.20;;;32.20;30.50;;;;;;4966075;28;20493;-79
2021/03/24 12:02:56;;;;;;;11.30;10.20;;;32.40;30.10;;;;;;4971408;28;20516;-78
2021/03/24 12:05:42;;;;;;;11.33;10.20;;;31.80;30.80;;;;;;4950483;28;20457;-76
2021/03/24 12:08:36;;;;;;;11.00;9.90;;;31.40;31.30;;;;;;4961839;28;20482;-75
2021/03/24 12:11:19;;;;;;;11.20;10.10;;;31.30;31.60;;;;;;4962337;28;20940;-75
2021/03/24 12:13:46;;;;;;;10.57;9.47;;;32.70;31.10;;;;;;4966327;28;20438;-75
2021/03/24 12:16:17;;;;;;;13.57;11.37;;;32.90;30.50;;;;;;4962236;28;20507;-76
2021/03/24 12:18:43;;;;;;;10.53;9.53;;;32.40;29.60;;;;;;4966560;28;20446;-76
2021/03/24 12:21:34;;;;;;;12.23;11.10;;;31.90;30.60;;;;;;4964167;28;20512;-77
2021/03/24 12:24:04;;;;;;;10.90;9.73;;;31.70;29.60;;;;;;4964825;28;20202;-74
2021/03/24 12:26:38;;;;;;;12.03;10.50;;;31.40;30.80;;;;;;4966953;28;20807;-77
2021/03/24 12:29:03;;;;;;;11.10;10.00;;;30.90;30.50;;;;;;4965286;28;20435;-77
2021/03/24 12:31:30;;;;;;;10.57;9.50;;;29.10;30.10;;;;;;4966367;28;21023;-76
2021/03/24 12:34:01;;;;;;;11.87;10.50;;;28.60;31.70;;;;;;4962213;28;20179;-77
2021/03/24 12:36:31;;;;;;;11.37;10.20;;;29.30;32.50;;;;;;4962792;28;20430;-74
2021/03/24 12:39:04;;;;;;;18.50;13.97;;;29.40;31.60;;;;;;4961922;28;20551;-74
2021/03/24 12:41:40;;;;;;;11.03;9.63;;;28.30;31.70;;;;;;4962137;28;20540;-76
2021/03/24 12:44:37;;;;;;;11.07;9.50;;;26.00;33.00;;;;;;4961864;28;20440;-75
2021/03/24 12:47:07;;;;;;;17.73;13.67;;;24.40;34.60;;;;;;4957945;28;20472;-75
2021/03/24 12:49:39;;;;;;;13.00;11.60;;;23.60;36.80;;;;;;4961316;28;20796;-77
2021/03/24 12:52:31;;;;;;;16.17;10.83;;;22.90;37.50;;;;;;4960816;28;21003;-76
2021/03/24 12:54:57;;;;;;;13.93;10.00;;;22.90;37.30;;;;;;4961018;28;20437;-75
2021/03/24 12:57:35;;;;;;;10.77;9.30;;;23.20;37.70;;;;;;4940751;28;20523;-75
2021/03/24 13:00:07;;;;;;;11.33;9.67;;;22.40;38.30;;;;;;4959482;28;20199;-73
2021/03/24 13:03:01;;;;;;;10.83;9.70;;;22.20;38.70;;;;;;4964471;28;20473;-75
2021/03/24 13:05:36;;;;;;;13.03;9.90;;;21.90;38.80;;;;;;4963269;28;20780;-75
2021/03/24 13:08:25;;;;;;;13.50;10.70;;;22.00;38.50;;;;;;4964788;28;20512;-74
2021/03/24 13:11:09;;;;;;;11.87;10.30;;;22.60;38.30;;;;;;4961310;28;20461;-76
2021/03/24 13:13:38;;;;;;;11.57;9.30;;;23.70;38.50;;;;;;4963182;28;20445;-76
2021/03/24 13:16:27;;;;;;;12.60;9.60;;;25.40;37.20;;;;;;4968631;28;20441;-75
2021/03/24 13:19:05;;;;;;;10.30;8.30;;;26.20;36.40;;;;;;4965555;28;20445;-76
2021/03/24 13:21:40;;;;;;;10.90;9.70;;;27.10;35.50;;;;;;4962692;28;20490;-77
2021/03/24 13:24:46;;;;;;;10.40;9.33;;;27.40;35.00;;;;;;4961009;28;21070;-75
2021/03/24 13:27:32;;;;;;;10.33;8.93;;;26.80;33.50;;;;;;4963348;28;20548;-76
2021/03/24 13:30:19;;;;;;;11.93;10.30;;;25.00;34.90;;;;;;4964086;28;20422;-76
2021/03/24 13:33:22;;;;;;;10.23;8.40;;;23.70;35.90;;;;;;4964954;28;20460;-75
2021/03/24 13:35:56;;;;;;;10.60;8.97;;;25.20;36.00;;;;;;4968378;28;20774;-75